Sct Santiago — V7NF7 — position and weather

sailwx.info

Track history (hours):
 
Tides and Currents Weather Stations Pressure Air Temp Water Temp Dewpoint Dewpoint Depression Visibility Wind Speed Wind Dir Waves Ship Positions

Sct Santiago

Last reported at 2015-Feb-27 02:19 UTC. Time now 2015-Feb-27 06:07 UTC.
Position N 39°09' W 009°50'.

Length 294 m; draft 11.1 m.

Type: Cargo ship. MMSI: 538002953.

Date/timePositionNaut miles runAvg speedWind from/ knotsBaromVisibWave heightAir tempDewpointWater temp
2015-Feb-27 02:19N 39°09' W 009°50'1620.7
2015-Feb-27 01:33N 38°53' W 009°52'2120.9
2015-Feb-27 00:32N 38°33' W 009°46'2220.8
2015-Feb-26 23:27N 38°10' W 009°43'1920.7
2015-Feb-26 22:33N 37°52' W 009°38'2120.7
2015-Feb-26 21:33N 37°32' W 009°32'6118.1
2015-Feb-26 18:09N 36°40' W 008°50'1220.0
2015-Feb-26 17:33N 36°36' W 008°36'15620.9
2015-Feb-26 10:06N 35°60' W 005°28'1018.7
2015-Feb-26 09:33N 36°02' W 005°16'22721.7
2015-Feb-25 23:06N 36°39' W 000°38'68217.9
2015-Feb-24 09:04N 36°45' E 013°32'1121.0
2015-Feb-24 08:33N 36°41' E 013°45'2121.2
2015-Feb-24 07:33N 36°35' E 014°10'2221.8
2015-Feb-24 06:33N 36°29' E 014°36'46920.0
2015-Feb-23 07:10N 37°28' E 024°18'1621.8
2015-Feb-23 06:26N 37°40' E 024°31'  
2015-Feb-20 03:30N 40°58' E 028°40'0 0.0
2015-Feb-19 15:33N 40°58' E 028°41'0 0.0
2015-Feb-19 13:27N 40°58' E 028°40'0 0.0
2015-Feb-19 07:15N 40°58' E 028°40'0 0.0
2015-Feb-19 03:09N 40°58' E 028°40'0 0.0
2015-Feb-19 01:14N 40°58' E 028°40'0 0.0
2015-Feb-19 00:26N 40°58' E 028°40'0 0.0
2015-Feb-18 23:08N 40°58' E 028°40'41 1.1
2015-Feb-17 10:13N 40°46' E 029°32'0 0.0
2015-Feb-17 08:25N 40°46' E 029°32'0 0.0
2015-Feb-17 07:19N 40°46' E 029°32'0 0.0
2015-Feb-17 05:31N 40°46' E 029°32'0 0.0
2015-Feb-17 04:31N 40°46' E 029°32'0 0.0
2015-Feb-17 02:25N 40°46' E 029°32'  
Track history (hours):
 
Tides and Currents Weather Stations Pressure Air Temp Water Temp Dewpoint Dewpoint Depression Visibility Wind Speed Wind Dir Waves Ship Positions

Sct Santiago

Last reported at 2015-Feb-27 02:19 UTC. Time now 2015-Feb-27 06:07 UTC.
Position N 39°09' W 009°50'.

Length 294 m; draft 11.1 m.

Type: Cargo ship. MMSI: 538002953.

Date/timePositionNaut miles runAvg speedWind from/ knotsBaromVisibWave heightAir tempDewpointWater temp
2015-Feb-27 02:19N 39°09' W 009°50'1620.7
2015-Feb-27 01:33N 38°53' W 009°52'2120.9
2015-Feb-27 00:32N 38°33' W 009°46'2220.8
2015-Feb-26 23:27N 38°10' W 009°43'1920.7
2015-Feb-26 22:33N 37°52' W 009°38'2120.7
2015-Feb-26 21:33N 37°32' W 009°32'6118.1
2015-Feb-26 18:09N 36°40' W 008°50'1220.0
2015-Feb-26 17:33N 36°36' W 008°36'15620.9
2015-Feb-26 10:06N 35°60' W 005°28'1018.7
2015-Feb-26 09:33N 36°02' W 005°16'22721.7
2015-Feb-25 23:06N 36°39' W 000°38'68217.9
2015-Feb-24 09:04N 36°45' E 013°32'1121.0
2015-Feb-24 08:33N 36°41' E 013°45'2121.2
2015-Feb-24 07:33N 36°35' E 014°10'2221.8
2015-Feb-24 06:33N 36°29' E 014°36'46920.0
2015-Feb-23 07:10N 37°28' E 024°18'1621.8
2015-Feb-23 06:26N 37°40' E 024°31'  
2015-Feb-20 03:30N 40°58' E 028°40'0 0.0
2015-Feb-19 15:33N 40°58' E 028°41'0 0.0
2015-Feb-19 13:27N 40°58' E 028°40'0 0.0
2015-Feb-19 07:15N 40°58' E 028°40'0 0.0
2015-Feb-19 03:09N 40°58' E 028°40'0 0.0
2015-Feb-19 01:14N 40°58' E 028°40'0 0.0
2015-Feb-19 00:26N 40°58' E 028°40'0 0.0
2015-Feb-18 23:08N 40°58' E 028°40'41 1.1
2015-Feb-17 10:13N 40°46' E 029°32'0 0.0
2015-Feb-17 08:25N 40°46' E 029°32'0 0.0
2015-Feb-17 07:19N 40°46' E 029°32'0 0.0
2015-Feb-17 05:31N 40°46' E 029°32'0 0.0
2015-Feb-17 04:31N 40°46' E 029°32'0 0.0
2015-Feb-17 02:25N 40°46' E 029°32'  

Dump ship's entire track history